Time;durP1;ratioP1;P1;durP2;ratioP2;P2;SDS_P1;SDS_P2;PMS_P1;PMS_P2;Temp;Humidity;BMP_temperature;BMP_pressure;BME280_temperature;BME280_humidity;BME280_pressure;Samples;Min_cycle;Max_cycle;Signal;HPM_P1;HPM_P2
2023/09/19 00:00:27;;;;;;;5.10;1.85;;;17.30;99.90;;;;;;5018408;28;20375;-52
2023/09/19 00:02:59;;;;;;;2.92;1.85;;;17.30;99.90;;;;;;5018655;28;20026;-51
2023/09/19 00:05:27;;;;;;;2.80;1.67;;;17.30;99.90;;;;;;5018559;28;20042;-53
2023/09/19 00:07:54;;;;;;;2.92;1.90;;;17.30;99.90;;;;;;5017034;28;20104;-54
2023/09/19 00:10:24;;;;;;;3.70;1.77;;;17.30;99.90;;;;;;5016593;28;20485;-49
2023/09/19 00:12:52;;;;;;;2.22;1.73;;;17.30;99.90;;;;;;5014507;28;20076;-54
2023/09/19 00:15:18;;;;;;;3.78;1.83;;;17.30;99.90;;;;;;5012747;28;20061;-54
2023/09/19 00:17:44;;;;;;;2.95;1.80;;;17.30;99.90;;;;;;5015587;28;20374;-51
2023/09/19 00:20:12;;;;;;;5.30;2.13;;;17.20;99.90;;;;;;5014892;28;20079;-52
2023/09/19 00:22:44;;;;;;;2.78;1.85;;;17.20;99.90;;;;;;5011014;28;20655;-52
2023/09/19 00:25:11;;;;;;;3.08;1.85;;;17.20;99.90;;;;;;5017073;28;20029;-50
2023/09/19 00:27:41;;;;;;;2.28;1.90;;;17.20;99.90;;;;;;5014362;28;20029;-52
2023/09/19 00:30:14;;;;;;;3.58;1.70;;;17.10;99.90;;;;;;5015107;28;20029;-51
2023/09/19 00:32:40;;;;;;;5.63;1.95;;;17.10;99.90;;;;;;5018101;28;20072;-51
2023/09/19 00:35:05;;;;;;;3.92;1.92;;;17.10;99.90;;;;;;5014198;28;20073;-52
2023/09/19 00:37:31;;;;;;;6.13;2.08;;;17.00;99.90;;;;;;5018246;28;20028;-49
2023/09/19 00:39:56;;;;;;;3.55;2.05;;;17.00;99.90;;;;;;5022162;28;20090;-49
2023/09/19 00:42:22;;;;;;;3.08;1.80;;;16.90;99.90;;;;;;5018220;28;20105;-53
2023/09/19 00:44:51;;;;;;;4.55;1.90;;;16.90;99.90;;;;;;5020222;28;20053;-49
2023/09/19 00:47:17;;;;;;;3.17;2.08;;;16.90;99.90;;;;;;5015964;28;20056;-52
2023/09/19 00:49:43;;;;;;;4.65;2.58;;;16.90;99.90;;;;;;5018207;28;20022;-53
2023/09/19 00:52:11;;;;;;;2.17;1.83;;;16.90;99.90;;;;;;5018125;28;20025;-54
2023/09/19 00:54:36;;;;;;;2.97;1.73;;;16.80;99.90;;;;;;5016584;28;20053;-49
2023/09/19 00:57:02;;;;;;;4.38;2.03;;;16.80;99.90;;;;;;5021279;28;20068;-51
2023/09/19 00:59:30;;;;;;;2.50;1.70;;;16.80;99.90;;;;;;5017474;28;20036;-52
2023/09/19 01:01:56;;;;;;;6.15;2.55;;;16.80;99.90;;;;;;5015375;28;20496;-50
2023/09/19 01:04:22;;;;;;;3.50;2.00;;;16.80;99.90;;;;;;5015974;28;20026;-53
2023/09/19 01:06:53;;;;;;;2.85;2.05;;;16.70;99.90;;;;;;5013841;28;20040;-53
2023/09/19 01:09:19;;;;;;;4.10;1.98;;;16.70;99.90;;;;;;5017293;28;20031;-53
2023/09/19 01:11:50;;;;;;;2.65;1.70;;;16.70;99.90;;;;;;5013404;28;20377;-50
2023/09/19 01:14:41;;;;;;;5.95;2.10;;;16.70;99.90;;;;;;5011567;28;20040;-52
2023/09/19 01:17:23;;;;;;;1.40;1.30;;;16.70;99.90;;;;;;5010656;28;20472;-50
2023/09/19 01:20:25;;;;;;;2.58;1.50;;;16.60;99.90;;;;;;5014240;28;20028;-51
2023/09/19 01:23:11;;;;;;;3.05;1.95;;;16.60;99.90;;;;;;5018068;28;20049;-52
2023/09/19 01:26:17;;;;;;;2.55;1.58;;;16.60;99.90;;;;;;5017231;28;20025;-53
2023/09/19 01:28:54;;;;;;;2.72;1.48;;;16.50;99.90;;;;;;5011597;28;20026;-52
2023/09/19 01:31:21;;;;;;;6.90;2.15;;;16.50;99.90;;;;;;5014635;28;20022;-51
2023/09/19 01:33:57;;;;;;;2.15;1.90;;;16.50;99.90;;;;;;5015981;28;20032;-52
2023/09/19 01:36:23;;;;;;;3.88;1.85;;;16.50;99.90;;;;;;5017055;28;20017;-51
2023/09/19 01:38:50;;;;;;;6.68;1.90;;;16.50;99.90;;;;;;5012951;28;20386;-49
2023/09/19 01:41:22;;;;;;;6.00;2.10;;;16.50;99.90;;;;;;5014752;28;20121;-51
2023/09/19 01:43:50;;;;;;;3.00;1.50;;;16.50;99.90;;;;;;5015406;28;20044;-51
2023/09/19 01:46:28;;;;;;;2.97;1.92;;;16.50;99.90;;;;;;5014924;28;20037;-50
2023/09/19 01:48:56;;;;;;;4.22;2.35;;;16.50;99.90;;;;;;5016771;28;20032;-50
2023/09/19 01:51:53;;;;;;;3.97;1.90;;;16.50;99.90;;;;;;5012867;28;20029;-53
2023/09/19 01:54:30;;;;;;;4.47;2.60;;;16.50;99.90;;;;;;5018771;28;20036;-50
2023/09/19 01:57:21;;;;;;;4.10;2.17;;;16.50;99.90;;;;;;5022938;28;20231;-49
2023/09/19 01:59:54;;;;;;;4.68;1.98;;;16.50;99.90;;;;;;5037808;28;20241;-52
2023/09/19 02:02:22;;;;;;;4.63;1.80;;;16.40;99.90;;;;;;5024643;28;20088;-52
2023/09/19 02:04:49;;;;;;;2.72;1.83;;;16.40;99.90;;;;;;5020655;28;20024;-52
2023/09/19 02:07:15;;;;;;;3.80;1.50;;;16.40;99.90;;;;;;5025958;28;20049;-52
2023/09/19 02:09:42;;;;;;;3.03;2.05;;;16.30;99.90;;;;;;5020567;28;20022;-51
2023/09/19 02:12:09;;;;;;;4.85;1.98;;;16.30;99.90;;;;;;5030907;28;20017;-51
2023/09/19 02:14:35;;;;;;;1.98;1.60;;;16.30;99.90;;;;;;5015011;28;20022;-50
2023/09/19 02:17:03;;;;;;;3.05;2.00;;;16.30;99.90;;;;;;5020224;28;20065;-54
2023/09/19 02:19:29;;;;;;;2.38;1.70;;;16.30;99.90;;;;;;5018854;28;20052;-54
2023/09/19 02:21:55;;;;;;;3.83;1.85;;;16.30;99.90;;;;;;5024147;28;20064;-52
2023/09/19 02:24:21;;;;;;;2.00;1.75;;;16.30;99.90;;;;;;5020233;28;20057;-52
2023/09/19 02:26:47;;;;;;;4.10;1.80;;;16.30;99.90;;;;;;5019893;28;20095;-53
2023/09/19 02:29:13;;;;;;;2.75;1.70;;;16.30;99.90;;;;;;5026128;28;20024;-51
2023/09/19 02:31:39;;;;;;;2.10;1.60;;;16.30;99.90;;;;;;5020387;28;20042;-50
2023/09/19 02:34:06;;;;;;;1.60;1.40;;;16.20;99.90;;;;;;5020289;28;20024;-54
2023/09/19 02:36:32;;;;;;;2.33;1.48;;;16.20;99.90;;;;;;5023950;28;20081;-52
2023/09/19 02:38:57;;;;;;;2.67;2.08;;;16.20;99.90;;;;;;5019978;28;20436;-52
2023/09/19 02:41:23;;;;;;;4.13;1.83;;;16.20;99.90;;;;;;5024094;28;20026;-48
2023/09/19 02:43:48;;;;;;;2.85;1.77;;;16.10;99.90;;;;;;5018655;28;20025;-50
2023/09/19 02:46:14;;;;;;;4.13;1.60;;;16.20;99.90;;;;;;5021603;28;20033;-52
2023/09/19 02:48:39;;;;;;;3.15;1.67;;;16.10;99.90;;;;;;5014021;28;20494;-52
2023/09/19 02:51:05;;;;;;;2.45;1.77;;;16.10;99.90;;;;;;5021871;28;20029;-53
2023/09/19 02:53:33;;;;;;;2.55;1.55;;;16.10;99.90;;;;;;5013064;28;20137;-52
2023/09/19 02:55:59;;;;;;;5.28;1.92;;;16.10;99.90;;;;;;5014284;28;20502;-55
2023/09/19 02:58:24;;;;;;;4.55;2.22;;;16.10;99.90;;;;;;5009296;28;20033;-51
2023/09/19 03:00:51;;;;;;;5.53;1.98;;;16.10;99.90;;;;;;5015707;28;20021;-48
2023/09/19 03:03:17;;;;;;;1.95;1.40;;;16.00;99.90;;;;;;5013574;28;20029;-51
2023/09/19 03:05:47;;;;;;;4.28;1.67;;;16.00;99.90;;;;;;5012560;28;20040;-52
2023/09/19 03:08:14;;;;;;;3.15;1.60;;;16.00;99.90;;;;;;5010772;28;20057;-54
2023/09/19 03:10:40;;;;;;;1.88;1.35;;;15.90;99.90;;;;;;5014248;28;20021;-52
2023/09/19 03:13:09;;;;;;;2.58;1.80;;;15.90;99.90;;;;;;5008902;28;20045;-53
2023/09/19 03:15:38;;;;;;;3.05;1.70;;;15.90;99.90;;;;;;5014779;28;20163;-53
2023/09/19 03:18:04;;;;;;;2.03;1.65;;;15.90;99.90;;;;;;5014482;28;20029;-50
2023/09/19 03:20:29;;;;;;;3.15;1.67;;;15.90;99.90;;;;;;5012670;28;20030;-53
2023/09/19 03:22:55;;;;;;;4.10;1.45;;;15.90;99.90;;;;;;5011404;28;20053;-51
2023/09/19 03:25:23;;;;;;;2.75;1.73;;;15.80;99.90;;;;;;5018574;28;20326;-53
2023/09/19 03:27:48;;;;;;;2.60;1.90;;;15.80;99.90;;;;;;5014176;28;20028;-54
2023/09/19 03:30:14;;;;;;;1.67;1.55;;;15.80;99.90;;;;;;5011612;28;20433;-78
2023/09/19 03:32:49;;;;;;;3.90;1.88;;;15.80;99.90;;;;;;5015189;28;20095;-77
2023/09/19 03:35:15;;;;;;;4.13;2.10;;;15.80;99.90;;;;;;5018033;28;20516;-79
2023/09/19 03:37:41;;;;;;;2.03;1.73;;;15.80;99.90;;;;;;5016808;28;20084;-78
2023/09/19 03:40:11;;;;;;;3.92;1.70;;;15.80;99.90;;;;;;5021725;28;20052;-78
2023/09/19 03:42:40;;;;;;;4.15;2.00;;;15.80;99.90;;;;;;5019840;28;20021;-78
2023/09/19 03:45:11;;;;;;;2.58;1.98;;;15.80;99.90;;;;;;5020189;28;20116;-77
2023/09/19 03:47:37;;;;;;;2.10;1.48;;;15.80;99.90;;;;;;5023684;28;20097;-79
2023/09/19 03:50:03;;;;;;;3.60;1.73;;;15.80;99.90;;;;;;5022820;28;20036;-81
2023/09/19 03:52:28;;;;;;;4.97;1.90;;;15.70;99.90;;;;;;5025111;28;20030;-80
2023/09/19 03:54:54;;;;;;;4.68;2.15;;;15.70;99.90;;;;;;5019548;28;20037;-78
2023/09/19 03:57:20;;;;;;;3.70;1.65;;;15.70;99.90;;;;;;5022870;28;20083;-79
2023/09/19 03:59:47;;;;;;;2.15;1.33;;;15.70;99.90;;;;;;5009232;28;20044;-79
2023/09/19 04:02:21;;;;;;;3.25;1.92;;;15.70;99.90;;;;;;5015989;28;20033;-78
2023/09/19 04:04:48;;;;;;;3.28;1.65;;;15.70;99.90;;;;;;5021508;28;20017;-80
2023/09/19 04:07:13;;;;;;;5.00;2.28;;;15.70;99.90;;;;;;5027321;28;20069;-81
2023/09/19 04:09:39;;;;;;;2.65;1.42;;;15.70;99.90;;;;;;5029539;28;20071;-80
2023/09/19 04:12:05;;;;;;;4.35;1.80;;;15.70;99.90;;;;;;5024461;28;20083;-78
2023/09/19 04:14:30;;;;;;;3.38;1.88;;;15.70;99.90;;;;;;5015538;28;20099;-79
2023/09/19 04:16:56;;;;;;;3.80;1.65;;;15.70;99.90;;;;;;5026017;28;20033;-79
2023/09/19 04:19:21;;;;;;;3.00;1.67;;;15.70;99.90;;;;;;5023463;28;20041;-81
2023/09/19 04:21:47;;;;;;;2.65;1.60;;;15.70;99.90;;;;;;5020856;28;20030;-78
2023/09/19 04:24:13;;;;;;;3.35;1.80;;;15.70;99.90;;;;;;5027716;28;20441;-79
2023/09/19 04:26:38;;;;;;;1.83;1.55;;;15.70;99.90;;;;;;5023550;28;20075;-76
2023/09/19 04:29:05;;;;;;;3.00;1.50;;;15.60;99.90;;;;;;5014546;28;20022;-74
2023/09/19 04:31:31;;;;;;;2.60;1.80;;;15.60;99.90;;;;;;5029380;28;20055;-77
2023/09/19 04:33:59;;;;;;;2.78;1.70;;;15.60;99.90;;;;;;5022733;28;20026;-76
2023/09/19 04:36:24;;;;;;;4.38;2.17;;;15.60;99.90;;;;;;5018766;28;20053;-75
2023/09/19 04:38:50;;;;;;;3.05;1.83;;;15.60;99.90;;;;;;5028494;28;20492;-77
2023/09/19 04:41:16;;;;;;;2.88;1.73;;;15.60;99.90;;;;;;5026850;28;20644;-77
2023/09/19 04:43:41;;;;;;;5.65;1.60;;;15.50;99.90;;;;;;5019109;28;20060;-77
2023/09/19 04:46:07;;;;;;;3.88;1.50;;;15.50;99.90;;;;;;5025364;28;20083;-77
2023/09/19 04:48:34;;;;;;;4.63;1.58;;;15.50;99.90;;;;;;5016383;28;20022;-78
2023/09/19 04:51:00;;;;;;;1.98;1.60;;;15.50;99.90;;;;;;5023789;28;20017;-77
2023/09/19 04:53:25;;;;;;;2.65;1.67;;;15.50;99.90;;;;;;5024734;28;20181;-76
2023/09/19 04:55:55;;;;;;;3.42;1.40;;;15.50;99.90;;;;;;5017317;28;20029;-75
2023/09/19 04:58:21;;;;;;;5.78;2.03;;;15.50;99.90;;;;;;5024101;28;20045;-77
2023/09/19 05:00:47;;;;;;;2.38;1.83;;;15.50;99.90;;;;;;5024565;28;20313;-78
2023/09/19 05:03:12;;;;;;;3.47;1.83;;;15.50;99.90;;;;;;5020566;28;20488;-78
2023/09/19 05:05:41;;;;;;;2.97;2.15;;;15.60;99.90;;;;;;5016700;28;20438;-77
2023/09/19 05:08:08;;;;;;;2.30;1.73;;;15.60;99.90;;;;;;5020484;28;20025;-77
2023/09/19 05:10:34;;;;;;;4.78;1.92;;;15.60;99.90;;;;;;5017931;28;20034;-80
2023/09/19 05:13:00;;;;;;;2.92;2.08;;;15.60;99.90;;;;;;5023933;28;20051;-80
2023/09/19 05:15:26;;;;;;;2.65;2.35;;;15.70;99.90;;;;;;5014020;28;20038;-83
2023/09/19 05:17:54;;;;;;;2.25;1.98;;;15.70;99.90;;;;;;5031684;28;20033;-83
2023/09/19 05:20:29;;;;;;;3.28;2.20;;;15.80;99.90;;;;;;5023263;28;20052;-81
2023/09/19 05:23:02;;;;;;;2.65;2.03;;;15.90;99.90;;;;;;5016520;28;20018;-82
2023/09/19 05:25:37;;;;;;;2.30;2.10;;;15.90;99.90;;;;;;5024697;28;20110;-81
2023/09/19 05:28:05;;;;;;;4.63;2.03;;;16.00;99.90;;;;;;5024978;28;20025;-82
2023/09/19 05:30:31;;;;;;;3.30;2.15;;;16.00;99.90;;;;;;5023910;28;20112;-82
2023/09/19 05:32:57;;;;;;;3.17;1.80;;;16.00;99.90;;;;;;5021238;28;20045;-82
2023/09/19 05:35:24;;;;;;;3.08;2.03;;;16.10;99.90;;;;;;5026289;28;20029;-83
2023/09/19 05:37:54;;;;;;;2.53;1.92;;;16.10;99.90;;;;;;5024006;28;20109;-81
2023/09/19 05:40:20;;;;;;;2.58;1.70;;;16.20;99.90;;;;;;5020061;28;20033;-81
2023/09/19 05:42:46;;;;;;;2.30;1.73;;;16.20;99.90;;;;;;5023569;28;20033;-82
2023/09/19 05:45:13;;;;;;;2.58;1.40;;;16.30;99.90;;;;;;5024274;28;20044;-81
2023/09/19 05:47:42;;;;;;;2.38;1.70;;;16.30;99.90;;;;;;5019497;28;20017;-81
2023/09/19 05:50:09;;;;;;;1.92;1.45;;;16.40;99.90;;;;;;5023923;28;20028;-82
2023/09/19 05:52:37;;;;;;;3.15;1.30;;;16.40;99.90;;;;;;5022441;28;20052;-82
2023/09/19 05:55:05;;;;;;;2.83;1.63;;;16.50;99.90;;;;;;5024597;28;20017;-82
2023/09/19 05:57:30;;;;;;;2.70;1.30;;;16.60;99.90;;;;;;5027005;28;20119;-81
2023/09/19 05:59:56;;;;;;;1.65;1.33;;;16.60;99.90;;;;;;5032048;28;20428;-83
2023/09/19 06:02:21;;;;;;;1.52;1.42;;;16.60;99.90;;;;;;5022168;28;20014;-82
2023/09/19 06:04:47;;;;;;;2.25;1.23;;;16.70;99.90;;;;;;5015788;28;20034;-82
2023/09/19 06:07:13;;;;;;;2.55;1.65;;;16.70;99.90;;;;;;5026338;28;20040;-82
2023/09/19 06:09:38;;;;;;;6.07;1.73;;;16.80;99.90;;;;;;5019175;28;20557;-81
2023/09/19 06:12:04;;;;;;;1.83;1.48;;;16.80;99.90;;;;;;5018456;28;20068;-82
2023/09/19 06:14:30;;;;;;;3.13;1.55;;;17.00;99.90;;;;;;5017293;28;20105;-81
2023/09/19 06:16:56;;;;;;;3.53;1.52;;;17.30;99.90;;;;;;5004469;28;20050;-80
2023/09/19 06:19:22;;;;;;;1.50;1.17;;;17.50;99.90;;;;;;5023652;28;20104;-81
2023/09/19 06:21:49;;;;;;;2.22;1.23;;;17.80;99.90;;;;;;5017519;28;20084;-82
2023/09/19 06:24:14;;;;;;;3.20;1.45;;;18.40;99.90;;;;;;5020444;28;20030;-81
2023/09/19 06:26:40;;;;;;;2.85;1.52;;;18.90;97.60;;;;;;5024568;28;20037;-83
2023/09/19 06:29:08;;;;;;;1.48;1.30;;;19.30;97.00;;;;;;5021371;28;20025;-82
2023/09/19 06:31:34;;;;;;;2.47;1.27;;;19.60;95.80;;;;;;5018918;28;20082;-82
2023/09/19 06:33:59;;;;;;;1.77;1.27;;;19.80;92.60;;;;;;5019087;28;20489;-82
2023/09/19 06:36:25;;;;;;;2.45;1.27;;;19.90;93.20;;;;;;5021454;28;20033;-81
2023/09/19 06:38:53;;;;;;;4.38;1.55;;;20.10;93.20;;;;;;5028921;28;20018;-82
2023/09/19 06:41:19;;;;;;;2.83;1.70;;;20.20;91.40;;;;;;5012887;28;20030;-81
2023/09/19 06:43:45;;;;;;;1.88;1.17;;;20.40;91.30;;;;;;5018296;28;20053;-82
2023/09/19 06:46:12;;;;;;;2.00;1.40;;;20.60;91.30;;;;;;5014893;28;20524;-81
2023/09/19 06:48:38;;;;;;;4.57;1.30;;;20.90;89.80;;;;;;5022067;28;20009;-81
2023/09/19 06:51:04;;;;;;;1.85;1.13;;;21.20;90.00;;;;;;5023282;28;20028;-82
2023/09/19 06:53:31;;;;;;;3.78;1.40;;;21.30;89.30;;;;;;5013844;28;20115;-80
2023/09/19 06:55:57;;;;;;;1.40;1.05;;;21.40;88.10;;;;;;5014833;28;20145;-80
2023/09/19 06:58:23;;;;;;;2.72;1.48;;;21.40;85.70;;;;;;5021148;28;20112;-81
2023/09/19 07:00:50;;;;;;;4.03;1.52;;;21.10;85.00;;;;;;5022413;28;20104;-80
2023/09/19 07:03:18;;;;;;;3.53;1.25;;;21.00;85.40;;;;;;5021287;28;20165;-78
2023/09/19 07:05:44;;;;;;;4.65;1.30;;;20.80;80.20;;;;;;5019267;28;20040;-79
2023/09/19 07:08:13;;;;;;;2.85;1.50;;;20.70;83.40;;;;;;5014087;28;20037;-80
2023/09/19 07:10:40;;;;;;;7.80;2.13;;;20.80;84.90;;;;;;5022285;28;20100;-79
2023/09/19 07:13:10;;;;;;;1.60;1.20;;;21.00;84.60;;;;;;5013660;28;20029;-79
2023/09/19 07:15:39;;;;;;;2.35;1.23;;;21.30;83.00;;;;;;5008675;28;20040;-77
2023/09/19 07:18:06;;;;;;;2.90;1.38;;;21.40;82.70;;;;;;5008600;28;20087;-78
2023/09/19 07:20:34;;;;;;;2.90;1.27;;;21.50;80.70;;;;;;5013206;28;20057;-76
2023/09/19 07:23:00;;;;;;;5.20;1.38;;;21.60;78.10;;;;;;5009385;28;20014;-79
2023/09/19 07:25:26;;;;;;;1.92;1.40;;;21.80;79.60;;;;;;5009859;28;20612;-78
2023/09/19 07:27:54;;;;;;;1.90;1.20;;;22.30;76.40;;;;;;5004981;28;20034;-77
2023/09/19 07:30:20;;;;;;;3.97;1.50;;;22.70;77.00;;;;;;5008819;28;20482;-77
2023/09/19 07:32:45;;;;;;;3.58;1.35;;;23.00;72.10;;;;;;5013825;28;20038;-76
2023/09/19 07:35:12;;;;;;;2.20;1.33;;;23.10;75.90;;;;;;5015682;28;20084;-77
2023/09/19 07:37:37;;;;;;;1.92;1.20;;;23.10;74.30;;;;;;5015458;28;20095;-78
2023/09/19 07:40:07;;;;;;;2.13;1.23;;;23.30;74.80;;;;;;5012203;28;20080;-76
2023/09/19 07:42:34;;;;;;;1.58;1.20;;;23.80;73.00;;;;;;5017404;28;20033;-76
2023/09/19 07:45:01;;;;;;;2.03;1.02;;;24.10;67.50;;;;;;5012908;28;20028;-76
2023/09/19 07:47:27;;;;;;;2.53;1.15;;;24.70;71.70;;;;;;5014858;28;20030;-76
2023/09/19 07:49:53;;;;;;;3.92;1.50;;;24.80;66.50;;;;;;5019239;28;20109;-76
2023/09/19 07:52:19;;;;;;;8.40;1.70;;;25.10;68.70;;;;;;5012958;28;20086;-76
2023/09/19 07:54:44;;;;;;;2.25;1.63;;;25.10;64.50;;;;;;5015994;28;20037;-76
2023/09/19 07:57:11;;;;;;;3.35;1.40;;;24.80;62.30;;;;;;5022499;28;20026;-75
2023/09/19 07:59:38;;;;;;;4.95;1.75;;;24.30;58.90;;;;;;5014729;28;20026;-75
2023/09/19 08:02:04;;;;;;;2.13;1.33;;;23.90;62.80;;;;;;5017428;28;20025;-75
2023/09/19 08:04:32;;;;;;;2.35;1.13;;;23.80;64.10;;;;;;5016221;28;20022;-75
2023/09/19 08:07:00;;;;;;;3.38;1.60;;;24.20;64.50;;;;;;5019862;28;20061;-75
2023/09/19 08:09:26;;;;;;;3.40;1.48;;;24.40;63.20;;;;;;5020791;28;20045;-76
2023/09/19 08:11:51;;;;;;;3.30;1.38;;;24.70;61.90;;;;;;5019970;28;20485;-75
2023/09/19 08:14:17;;;;;;;4.05;1.00;;;24.40;60.40;;;;;;5014582;28;20060;-77
2023/09/19 08:16:43;;;;;;;3.92;1.75;;;24.50;61.90;;;;;;5016618;28;20489;-78
2023/09/19 08:19:10;;;;;;;1.35;1.05;;;24.30;58.60;;;;;;5017135;28;20037;-76
2023/09/19 08:21:36;;;;;;;2.22;1.27;;;24.10;59.50;;;;;;5017165;28;20021;-76
2023/09/19 08:24:05;;;;;;;4.13;1.60;;;23.90;58.80;;;;;;5020279;28;20032;-75
2023/09/19 08:26:31;;;;;;;3.00;1.45;;;23.60;57.60;;;;;;5016629;28;20037;-74
2023/09/19 08:28:57;;;;;;;3.53;1.50;;;23.30;56.40;;;;;;5019291;28;20032;-75
2023/09/19 08:31:23;;;;;;;2.72;1.35;;;23.00;56.70;;;;;;5018411;28;20025;-75
2023/09/19 08:33:49;;;;;;;5.00;1.67;;;22.80;55.30;;;;;;5014651;28;20116;-75
2023/09/19 08:36:15;;;;;;;4.22;1.77;;;22.60;56.70;;;;;;5016541;28;20021;-75
2023/09/19 08:38:40;;;;;;;3.10;1.35;;;22.70;57.00;;;;;;5016072;28;20028;-76
2023/09/19 08:41:07;;;;;;;6.07;1.77;;;22.90;57.50;;;;;;5014194;28;20026;-76
2023/09/19 08:43:34;;;;;;;4.97;1.77;;;23.20;53.20;;;;;;5018628;28;20517;-76
2023/09/19 08:46:14;;;;;;;2.47;1.40;;;23.10;55.40;;;;;;5026892;28;20096;-75
2023/09/19 08:48:48;;;;;;;3.22;1.50;;;23.00;51.50;;;;;;5008145;28;20048;-76
2023/09/19 08:51:20;;;;;;;3.90;1.45;;;22.80;52.80;;;;;;5010019;28;20036;-76
2023/09/19 08:54:06;;;;;;;1.35;1.15;;;22.50;54.20;;;;;;5016460;28;20030;-77
2023/09/19 08:56:33;;;;;;;4.50;2.05;;;22.40;51.40;;;;;;5014987;28;20053;-75
2023/09/19 08:59:02;;;;;;;3.03;1.45;;;22.30;53.80;;;;;;5012264;28;20030;-75
2023/09/19 09:01:29;;;;;;;2.10;1.40;;;22.40;54.80;;;;;;5017755;28;20528;-76
2023/09/19 09:03:56;;;;;;;3.53;1.45;;;22.80;56.10;;;;;;5015776;28;20057;-76
2023/09/19 09:06:23;;;;;;;3.83;1.67;;;23.10;55.70;;;;;;5019886;28;20083;-74
2023/09/19 09:08:50;;;;;;;2.45;1.40;;;23.60;55.50;;;;;;5017263;28;20041;-75
2023/09/19 09:11:17;;;;;;;2.17;1.48;;;24.10;54.50;;;;;;5015001;28;20046;-74
2023/09/19 09:13:47;;;;;;;3.80;1.48;;;24.40;51.90;;;;;;5017515;28;20029;-75
2023/09/19 09:16:13;;;;;;;2.70;1.42;;;24.40;52.40;;;;;;5016783;28;20033;-74
2023/09/19 09:18:39;;;;;;;2.53;1.67;;;24.40;50.70;;;;;;5015475;28;20017;-74
2023/09/19 09:21:05;;;;;;;3.58;1.70;;;24.40;50.30;;;;;;5012748;28;20029;-73
2023/09/19 09:23:34;;;;;;;3.35;1.70;;;24.20;48.90;;;;;;5014854;28;20928;-76
2023/09/19 09:26:03;;;;;;;4.93;1.60;;;23.90;49.60;;;;;;5016407;28;20030;-75
2023/09/19 09:28:30;;;;;;;3.65;1.80;;;23.30;48.70;;;;;;5015741;28;20481;-75
2023/09/19 09:31:10;;;;;;;3.03;1.65;;;23.10;49.00;;;;;;5017592;28;20100;-62
2023/09/19 09:33:36;;;;;;;3.88;1.75;;;23.10;49.50;;;;;;5018143;28;20658;-76
2023/09/19 09:36:03;;;;;;;2.60;1.50;;;23.20;48.90;;;;;;5018169;28;20109;-74
2023/09/19 09:38:46;;;;;;;1.77;1.33;;;23.20;49.00;;;;;;5011337;28;20124;-74
2023/09/19 09:41:15;;;;;;;4.10;1.75;;;23.40;48.00;;;;;;5013132;28;20509;-74
2023/09/19 09:43:46;;;;;;;4.13;1.70;;;23.70;49.00;;;;;;5013667;28;20502;-74
2023/09/19 09:52:07;;;;;;;4.18;2.13;;;23.70;45.00;;;;;;5012568;28;20109;-74
2023/09/19 09:54:36;;;;;;;3.38;1.85;;;23.40;44.20;;;;;;5011321;28;20090;-74
2023/09/19 09:57:16;;;;;;;4.32;2.00;;;23.00;43.90;;;;;;5012609;28;20033;-74
2023/09/19 09:59:57;;;;;;;4.53;2.00;;;22.60;46.60;;;;;;5014181;28;20464;-75
2023/09/19 10:02:36;;;;;;;2.97;1.50;;;22.60;47.50;;;;;;5013327;28;20033;-73
2023/09/19 10:07:54;;;;;;;3.63;1.83;;;22.80;46.80;;;;;;5013365;28;20087;-74
2023/09/19 10:10:53;;;;;;;3.92;2.10;;;22.80;47.40;;;;;;5022180;28;20041;-74
2023/09/19 10:13:23;;;;;;;4.90;1.90;;;22.80;44.60;;;;;;5010665;28;20061;-74
2023/09/19 10:15:54;;;;;;;3.28;1.90;;;22.80;45.10;;;;;;5018520;28;20028;-74
2023/09/19 10:18:23;;;;;;;6.13;2.05;;;22.80;45.40;;;;;;5018397;28;20025;-74
2023/09/19 10:20:49;;;;;;;7.47;2.38;;;22.70;43.80;;;;;;5015515;28;20018;-75
2023/09/19 10:23:22;;;;;;;2.63;2.10;;;22.70;43.50;;;;;;5008244;28;20025;-74
2023/09/19 10:25:48;;;;;;;5.63;2.15;;;22.70;43.10;;;;;;5014700;28;20156;-74
2023/09/19 10:28:21;;;;;;;4.00;2.30;;;22.70;43.30;;;;;;5015670;28;20064;-75
2023/09/19 10:30:49;;;;;;;4.10;2.33;;;22.80;43.10;;;;;;5011273;28;20426;-75
2023/09/19 10:33:17;;;;;;;3.92;2.35;;;22.80;42.60;;;;;;5014900;28;20049;-75
2023/09/19 10:35:45;;;;;;;3.17;2.10;;;22.70;42.60;;;;;;5011978;28;20132;-75
2023/09/19 10:38:13;;;;;;;4.70;2.13;;;22.70;42.50;;;;;;5015102;28;20041;-74
2023/09/19 10:40:45;;;;;;;5.45;2.50;;;22.90;42.50;;;;;;5014051;28;20026;-74
2023/09/19 10:43:17;;;;;;;8.75;2.85;;;22.90;42.70;;;;;;5011851;28;20092;-73
2023/09/19 10:45:44;;;;;;;3.45;2.00;;;23.00;42.50;;;;;;5017741;28;20401;-75
2023/09/19 10:48:12;;;;;;;3.47;1.95;;;23.10;42.40;;;;;;5013023;28;20064;-74
2023/09/19 10:50:46;;;;;;;3.88;2.00;;;23.10;41.90;;;;;;5019278;28;20496;-76
2023/09/19 10:53:13;;;;;;;7.05;2.90;;;22.90;41.00;;;;;;5013585;28;20030;-75
2023/09/19 10:55:39;;;;;;;3.50;2.40;;;22.70;41.10;;;;;;5018791;28;20029;-74
2023/09/19 10:58:14;;;;;;;4.53;2.35;;;22.50;40.50;;;;;;5016798;28;20481;-70
2023/09/19 11:01:12;;;;;;;6.32;2.30;;;22.30;40.60;;;;;;5011688;28;20022;-75
2023/09/19 11:03:43;;;;;;;3.97;2.22;;;22.10;39.80;;;;;;5008155;28;20080;-75
2023/09/19 11:06:18;;;;;;;4.65;2.10;;;22.00;40.90;;;;;;5018867;28;20021;-75
2023/09/19 11:09:45;;;;;;;3.85;2.50;;;22.00;40.10;;;;;;5015477;28;20021;-75
2023/09/19 11:11:52;;;;;;;5.50;2.30;;;21.90;41.10;;;;;;5016953;28;20659;-75
2023/09/19 11:14:24;;;;;;;5.57;2.30;;;21.80;41.10;;;;;;5011095;28;20041;-75
2023/09/19 11:17:11;;;;;;;2.40;2.00;;;21.80;41.50;;;;;;5017074;28;20036;-75
2023/09/19 11:22:58;;;;;;;5.35;2.40;;;21.80;41.60;;;;;;5011953;28;20113;-74
2023/09/19 11:25:47;;;;;;;3.55;2.00;;;21.80;39.60;;;;;;5012531;28;20052;-75
2023/09/19 11:28:16;;;;;;;4.90;2.40;;;21.80;39.30;;;;;;5011798;28;20501;-75
2023/09/19 11:30:46;;;;;;;4.70;2.50;;;21.80;39.80;;;;;;5012868;28;20160;-75
2023/09/19 11:33:33;;;;;;;5.18;2.45;;;21.80;38.90;;;;;;5016612;28;20045;-74
2023/09/19 11:36:01;;;;;;;3.25;2.30;;;21.80;36.20;;;;;;5018950;28;20109;-74
2023/09/19 11:38:45;;;;;;;3.13;2.10;;;21.80;36.60;;;;;;5015878;28;20111;-75
2023/09/19 11:41:25;;;;;;;3.65;2.08;;;21.80;37.20;;;;;;5012494;28;20017;-75
2023/09/19 11:43:51;;;;;;;4.43;2.10;;;21.90;37.10;;;;;;5009508;28;20148;-75
2023/09/19 11:46:21;;;;;;;5.45;2.60;;;21.90;37.70;;;;;;5011573;28;20725;-74
2023/09/19 11:48:50;;;;;;;3.15;2.00;;;21.90;37.60;;;;;;5013178;28;20025;-75
2023/09/19 11:51:19;;;;;;;6.60;2.30;;;21.90;37.40;;;;;;5018161;28;20036;-75
2023/09/19 11:53:48;;;;;;;8.55;2.67;;;21.90;35.70;;;;;;5022299;28;20025;-75
2023/09/19 11:56:18;;;;;;;4.90;2.03;;;21.90;36.10;;;;;;5015282;28;20615;-75
2023/09/19 11:58:45;;;;;;;4.45;2.53;;;21.90;36.30;;;;;;5011284;28;20054;-75
2023/09/19 12:01:19;;;;;;;5.93;2.40;;;21.90;36.50;;;;;;5017294;28;20060;-75
2023/09/19 12:03:49;;;;;;;4.57;2.22;;;21.70;36.80;;;;;;5009537;28;20402;-75
2023/09/19 12:06:16;;;;;;;6.13;2.33;;;21.70;36.70;;;;;;5016982;28;20036;-74
2023/09/19 12:08:43;;;;;;;4.20;2.22;;;21.70;37.30;;;;;;5012299;28;20481;-75
2023/09/19 12:11:14;;;;;;;7.05;2.20;;;21.70;37.50;;;;;;5015142;28;20033;-75
2023/09/19 12:13:44;;;;;;;3.40;2.00;;;21.80;37.30;;;;;;5016099;28;20022;-75
2023/09/19 12:16:21;;;;;;;5.80;2.38;;;21.80;37.40;;;;;;5015196;28;20164;-75
2023/09/19 12:18:47;;;;;;;4.88;2.63;;;21.80;37.40;;;;;;5007788;28;20025;-74
2023/09/19 12:21:32;;;;;;;7.13;2.22;;;21.80;37.60;;;;;;5013203;28;20037;-75
2023/09/19 12:24:17;;;;;;;5.35;2.50;;;21.70;36.70;;;;;;5015498;28;20026;-75
2023/09/19 12:26:45;;;;;;;5.60;2.35;;;21.70;35.20;;;;;;5015362;28;20034;-75
2023/09/19 12:29:19;;;;;;;4.82;2.20;;;21.50;36.50;;;;;;5015641;28;20072;-75
2023/09/19 12:31:50;;;;;;;4.95;1.83;;;21.60;36.90;;;;;;5018626;28;20041;-75
2023/09/19 12:34:27;;;;;;;6.00;2.08;;;21.60;36.10;;;;;;5018251;28;20112;-75
2023/09/19 12:37:22;;;;;;;4.28;2.10;;;21.60;36.70;;;;;;5015194;28;20071;-75
2023/09/19 12:39:51;;;;;;;4.47;2.10;;;21.50;35.60;;;;;;5020568;28;20026;-75
2023/09/19 12:42:19;;;;;;;3.75;1.80;;;21.60;36.50;;;;;;5018397;28;20029;-75
2023/09/19 12:44:47;;;;;;;6.15;2.42;;;21.70;36.40;;;;;;5015963;28;20450;-75
2023/09/19 12:47:19;;;;;;;4.22;2.22;;;21.70;36.30;;;;;;5017942;28;20755;-75
2023/09/19 12:50:08;;;;;;;6.40;1.67;;;21.80;36.10;;;;;;5019158;28;20096;-75
2023/09/19 12:52:37;;;;;;;5.10;1.90;;;21.80;35.00;;;;;;5017202;28;20022;-75
2023/09/19 12:55:04;;;;;;;5.63;2.20;;;21.80;35.70;;;;;;5015775;28;20025;-74
2023/09/19 12:57:32;;;;;;;6.20;1.88;;;21.80;36.00;;;;;;5024048;28;20075;-75
2023/09/19 12:59:57;;;;;;;4.65;1.77;;;21.90;36.40;;;;;;5014890;28;20022;-75
2023/09/19 13:02:24;;;;;;;3.55;1.90;;;21.90;36.40;;;;;;5014699;28;20030;-75
2023/09/19 13:04:53;;;;;;;5.63;1.70;;;22.00;36.40;;;;;;5021249;28;20060;-75
2023/09/19 13:07:46;;;;;;;3.60;2.10;;;22.10;36.10;;;;;;5021789;28;20038;-74
2023/09/19 13:10:15;;;;;;;4.57;2.17;;;22.10;34.20;;;;;;5010492;28;20510;-74